sensor_id;sensor_type;location;lat;lon;timestamp;P1;durP1;ratioP1;P2;durP2;ratioP2
43098;SDS011;28715;51.988;6.020;2022-08-14T00:01:58;10.30;;;7.90;;
43098;SDS011;28715;51.988;6.020;2022-08-14T00:04:24;10.97;;;8.20;;
43098;SDS011;28715;51.988;6.020;2022-08-14T00:06:49;10.47;;;8.37;;
43098;SDS011;28715;51.988;6.020;2022-08-14T00:09:15;9.40;;;8.37;;
43098;SDS011;28715;51.988;6.020;2022-08-14T00:11:40;11.60;;;8.57;;
43098;SDS011;28715;51.988;6.020;2022-08-14T00:14:06;11.17;;;8.10;;
43098;SDS011;28715;51.988;6.020;2022-08-14T00:16:32;11.60;;;8.63;;
43098;SDS011;28715;51.988;6.020;2022-08-14T00:18:57;11.87;;;9.20;;
43098;SDS011;28715;51.988;6.020;2022-08-14T00:21:24;13.70;;;8.80;;
43098;SDS011;28715;51.988;6.020;2022-08-14T00:23:50;11.87;;;9.33;;
43098;SDS011;28715;51.988;6.020;2022-08-14T00:26:17;11.73;;;9.97;;
43098;SDS011;28715;51.988;6.020;2022-08-14T00:28:43;11.97;;;9.50;;
43098;SDS011;28715;51.988;6.020;2022-08-14T00:31:08;10.90;;;9.37;;
43098;SDS011;28715;51.988;6.020;2022-08-14T00:33:34;10.47;;;9.37;;
43098;SDS011;28715;51.988;6.020;2022-08-14T00:36:00;10.83;;;8.67;;
43098;SDS011;28715;51.988;6.020;2022-08-14T00:38:25;11.40;;;9.13;;
43098;SDS011;28715;51.988;6.020;2022-08-14T00:40:51;15.03;;;9.40;;
43098;SDS011;28715;51.988;6.020;2022-08-14T00:43:16;12.70;;;9.40;;
43098;SDS011;28715;51.988;6.020;2022-08-14T00:45:42;11.60;;;10.20;;
43098;SDS011;28715;51.988;6.020;2022-08-14T00:48:08;12.00;;;9.90;;
43098;SDS011;28715;51.988;6.020;2022-08-14T00:50:34;11.80;;;9.73;;
43098;SDS011;28715;51.988;6.020;2022-08-14T00:53:00;11.13;;;10.00;;
43098;SDS011;28715;51.988;6.020;2022-08-14T00:55:26;10.70;;;9.53;;
43098;SDS011;28715;51.988;6.020;2022-08-14T00:57:53;11.37;;;9.53;;
43098;SDS011;28715;51.988;6.020;2022-08-14T01:00:37;13.70;;;9.70;;
43098;SDS011;28715;51.988;6.020;2022-08-14T01:03:04;13.57;;;9.97;;
43098;SDS011;28715;51.988;6.020;2022-08-14T01:05:32;10.50;;;9.40;;
43098;SDS011;28715;51.988;6.020;2022-08-14T01:07:59;11.30;;;9.70;;
43098;SDS011;28715;51.988;6.020;2022-08-14T01:10:26;13.40;;;9.90;;
43098;SDS011;28715;51.988;6.020;2022-08-14T01:13:13;12.23;;;9.93;;
43098;SDS011;28715;51.988;6.020;2022-08-14T01:15:44;13.03;;;10.37;;
43098;SDS011;28715;51.988;6.020;2022-08-14T01:18:12;12.60;;;11.30;;
43098;SDS011;28715;51.988;6.020;2022-08-14T01:20:57;12.23;;;10.37;;
43098;SDS011;28715;51.988;6.020;2022-08-14T01:23:41;12.00;;;10.13;;
43098;SDS011;28715;51.988;6.020;2022-08-14T01:26:09;10.20;;;9.10;;
43098;SDS011;28715;51.988;6.020;2022-08-14T01:28:36;12.77;;;10.43;;
43098;SDS011;28715;51.988;6.020;2022-08-14T01:31:07;12.77;;;9.83;;
43098;SDS011;28715;51.988;6.020;2022-08-14T01:33:36;11.13;;;9.97;;
43098;SDS011;28715;51.988;6.020;2022-08-14T01:36:04;11.43;;;10.23;;
43098;SDS011;28715;51.988;6.020;2022-08-14T01:38:32;12.33;;;11.03;;
43098;SDS011;28715;51.988;6.020;2022-08-14T01:41:03;11.60;;;10.40;;
43098;SDS011;28715;51.988;6.020;2022-08-14T01:43:41;14.60;;;11.57;;
43098;SDS011;28715;51.988;6.020;2022-08-14T01:46:08;12.60;;;11.30;;
43098;SDS011;28715;51.988;6.020;2022-08-14T01:48:37;12.53;;;11.13;;
43098;SDS011;28715;51.988;6.020;2022-08-14T01:51:04;13.90;;;11.67;;
43098;SDS011;28715;51.988;6.020;2022-08-14T01:53:30;15.37;;;11.07;;
43098;SDS011;28715;51.988;6.020;2022-08-14T01:55:57;13.50;;;10.80;;
43098;SDS011;28715;51.988;6.020;2022-08-14T01:58:26;12.80;;;10.70;;
43098;SDS011;28715;51.988;6.020;2022-08-14T02:00:53;13.30;;;11.60;;
43098;SDS011;28715;51.988;6.020;2022-08-14T02:03:20;11.90;;;10.60;;
43098;SDS011;28715;51.988;6.020;2022-08-14T02:05:47;13.63;;;11.40;;
43098;SDS011;28715;51.988;6.020;2022-08-14T02:08:13;13.50;;;11.33;;
43098;SDS011;28715;51.988;6.020;2022-08-14T02:10:40;12.93;;;11.53;;
43098;SDS011;28715;51.988;6.020;2022-08-14T02:13:06;13.03;;;11.47;;
43098;SDS011;28715;51.988;6.020;2022-08-14T02:15:32;12.63;;;11.37;;
43098;SDS011;28715;51.988;6.020;2022-08-14T02:17:58;14.10;;;11.67;;
43098;SDS011;28715;51.988;6.020;2022-08-14T02:20:31;14.53;;;11.47;;
43098;SDS011;28715;51.988;6.020;2022-08-14T02:22:58;13.87;;;11.73;;
43098;SDS011;28715;51.988;6.020;2022-08-14T02:25:24;13.00;;;11.47;;
43098;SDS011;28715;51.988;6.020;2022-08-14T02:27:50;13.23;;;11.47;;
43098;SDS011;28715;51.988;6.020;2022-08-14T02:30:20;12.90;;;11.60;;
43098;SDS011;28715;51.988;6.020;2022-08-14T02:32:48;16.23;;;11.98;;
43098;SDS011;28715;51.988;6.020;2022-08-14T02:35:15;14.33;;;12.13;;
43098;SDS011;28715;51.988;6.020;2022-08-14T02:37:42;12.90;;;11.60;;
43098;SDS011;28715;51.988;6.020;2022-08-14T02:40:15;14.07;;;12.03;;
43098;SDS011;28715;51.988;6.020;2022-08-14T02:42:42;14.93;;;11.97;;
43098;SDS011;28715;51.988;6.020;2022-08-14T02:45:07;13.20;;;11.80;;
43098;SDS011;28715;51.988;6.020;2022-08-14T02:47:33;14.00;;;11.90;;
43098;SDS011;28715;51.988;6.020;2022-08-14T02:50:00;12.87;;;11.57;;
43098;SDS011;28715;51.988;6.020;2022-08-14T02:52:26;13.40;;;11.97;;
43098;SDS011;28715;51.988;6.020;2022-08-14T02:54:51;14.97;;;12.83;;
43098;SDS011;28715;51.988;6.020;2022-08-14T02:57:17;15.27;;;13.00;;
43098;SDS011;28715;51.988;6.020;2022-08-14T02:59:46;14.70;;;12.77;;
43098;SDS011;28715;51.988;6.020;2022-08-14T03:02:13;14.50;;;13.00;;
43098;SDS011;28715;51.988;6.020;2022-08-14T03:04:40;16.07;;;13.00;;
43098;SDS011;28715;51.988;6.020;2022-08-14T03:07:06;14.43;;;12.53;;
43098;SDS011;28715;51.988;6.020;2022-08-14T03:09:34;15.43;;;13.30;;
43098;SDS011;28715;51.988;6.020;2022-08-14T03:12:03;16.83;;;13.20;;
43098;SDS011;28715;51.988;6.020;2022-08-14T03:14:30;15.40;;;13.37;;
43098;SDS011;28715;51.988;6.020;2022-08-14T03:17:00;14.10;;;12.60;;
43098;SDS011;28715;51.988;6.020;2022-08-14T03:19:26;15.57;;;13.53;;
43098;SDS011;28715;51.988;6.020;2022-08-14T03:21:51;15.33;;;13.63;;
43098;SDS011;28715;51.988;6.020;2022-08-14T03:24:17;15.77;;;13.83;;
43098;SDS011;28715;51.988;6.020;2022-08-14T03:26:46;16.23;;;13.07;;
43098;SDS011;28715;51.988;6.020;2022-08-14T03:29:13;15.70;;;13.63;;
43098;SDS011;28715;51.988;6.020;2022-08-14T03:31:40;16.83;;;14.10;;
43098;SDS011;28715;51.988;6.020;2022-08-14T03:34:06;15.30;;;13.70;;
43098;SDS011;28715;51.988;6.020;2022-08-14T03:36:34;15.67;;;14.00;;
43098;SDS011;28715;51.988;6.020;2022-08-14T03:39:01;17.10;;;14.10;;
43098;SDS011;28715;51.988;6.020;2022-08-14T03:41:30;16.25;;;14.55;;
43098;SDS011;28715;51.988;6.020;2022-08-14T03:43:56;16.00;;;14.30;;
43098;SDS011;28715;51.988;6.020;2022-08-14T03:46:24;16.20;;;14.50;;
43098;SDS011;28715;51.988;6.020;2022-08-14T03:48:51;16.53;;;14.77;;
43098;SDS011;28715;51.988;6.020;2022-08-14T03:51:19;15.97;;;14.20;;
43098;SDS011;28715;51.988;6.020;2022-08-14T03:53:46;17.57;;;14.90;;
43098;SDS011;28715;51.988;6.020;2022-08-14T03:56:13;17.13;;;14.30;;
43098;SDS011;28715;51.988;6.020;2022-08-14T03:58:42;16.57;;;14.87;;
43098;SDS011;28715;51.988;6.020;2022-08-14T04:01:11;16.63;;;14.30;;
43098;SDS011;28715;51.988;6.020;2022-08-14T04:03:37;18.23;;;14.97;;
43098;SDS011;28715;51.988;6.020;2022-08-14T04:06:03;16.60;;;14.47;;
43098;SDS011;28715;51.988;6.020;2022-08-14T04:08:29;15.93;;;13.53;;
43098;SDS011;28715;51.988;6.020;2022-08-14T04:11:00;17.30;;;15.50;;
43098;SDS011;28715;51.988;6.020;2022-08-14T04:13:26;18.43;;;14.90;;
43098;SDS011;28715;51.988;6.020;2022-08-14T04:15:51;17.23;;;15.37;;
43098;SDS011;28715;51.988;6.020;2022-08-14T04:18:17;17.60;;;15.23;;
43098;SDS011;28715;51.988;6.020;2022-08-14T04:20:43;17.27;;;14.17;;
43098;SDS011;28715;51.988;6.020;2022-08-14T04:23:08;17.67;;;15.10;;
43098;SDS011;28715;51.988;6.020;2022-08-14T04:25:34;19.33;;;15.53;;
43098;SDS011;28715;51.988;6.020;2022-08-14T04:28:04;19.23;;;15.20;;
43098;SDS011;28715;51.988;6.020;2022-08-14T04:30:34;18.87;;;15.27;;
43098;SDS011;28715;51.988;6.020;2022-08-14T04:33:03;16.90;;;15.10;;
43098;SDS011;28715;51.988;6.020;2022-08-14T04:35:30;18.57;;;16.47;;
43098;SDS011;28715;51.988;6.020;2022-08-14T04:37:56;19.73;;;17.43;;
43098;SDS011;28715;51.988;6.020;2022-08-14T04:40:40;17.80;;;15.90;;
43098;SDS011;28715;51.988;6.020;2022-08-14T04:43:24;18.93;;;16.80;;
43098;SDS011;28715;51.988;6.020;2022-08-14T04:46:03;19.57;;;16.63;;
43098;SDS011;28715;51.988;6.020;2022-08-14T04:48:29;18.67;;;15.27;;
43098;SDS011;28715;51.988;6.020;2022-08-14T04:50:55;18.20;;;16.10;;
43098;SDS011;28715;51.988;6.020;2022-08-14T04:53:22;19.43;;;16.40;;
43098;SDS011;28715;51.988;6.020;2022-08-14T04:55:49;17.90;;;15.43;;
43098;SDS011;28715;51.988;6.020;2022-08-14T04:58:19;22.43;;;15.83;;
43098;SDS011;28715;51.988;6.020;2022-08-14T05:00:49;18.37;;;16.03;;
43098;SDS011;28715;51.988;6.020;2022-08-14T05:03:23;18.80;;;16.80;;
43098;SDS011;28715;51.988;6.020;2022-08-14T05:05:53;20.00;;;17.13;;
43098;SDS011;28715;51.988;6.020;2022-08-14T05:08:22;20.33;;;16.03;;
43098;SDS011;28715;51.988;6.020;2022-08-14T05:10:49;18.40;;;16.50;;
43098;SDS011;28715;51.988;6.020;2022-08-14T05:15:47;20.67;;;16.47;;
43098;SDS011;28715;51.988;6.020;2022-08-14T05:18:14;19.00;;;16.93;;
43098;SDS011;28715;51.988;6.020;2022-08-14T05:20:42;20.58;;;16.45;;
43098;SDS011;28715;51.988;6.020;2022-08-14T05:23:15;19.07;;;16.57;;
43098;SDS011;28715;51.988;6.020;2022-08-14T05:25:42;18.27;;;16.33;;
43098;SDS011;28715;51.988;6.020;2022-08-14T05:28:16;18.73;;;16.23;;
43098;SDS011;28715;51.988;6.020;2022-08-14T05:30:51;20.43;;;16.40;;
43098;SDS011;28715;51.988;6.020;2022-08-14T05:33:24;18.73;;;16.08;;
43098;SDS011;28715;51.988;6.020;2022-08-14T05:35:52;21.13;;;16.70;;
43098;SDS011;28715;51.988;6.020;2022-08-14T05:38:25;19.23;;;16.43;;
43098;SDS011;28715;51.988;6.020;2022-08-14T05:40:58;20.33;;;16.97;;
43098;SDS011;28715;51.988;6.020;2022-08-14T05:43:24;20.67;;;16.63;;
43098;SDS011;28715;51.988;6.020;2022-08-14T05:45:50;17.93;;;16.00;;
43098;SDS011;28715;51.988;6.020;2022-08-14T05:48:16;18.27;;;16.27;;
43098;SDS011;28715;51.988;6.020;2022-08-14T05:50:41;19.13;;;16.33;;
43098;SDS011;28715;51.988;6.020;2022-08-14T05:53:07;19.03;;;16.47;;
43098;SDS011;28715;51.988;6.020;2022-08-14T05:55:33;19.53;;;17.43;;
43098;SDS011;28715;51.988;6.020;2022-08-14T05:57:59;18.27;;;16.37;;
43098;SDS011;28715;51.988;6.020;2022-08-14T06:00:33;20.45;;;17.17;;
43098;SDS011;28715;51.988;6.020;2022-08-14T06:03:02;18.57;;;16.67;;
43098;SDS011;28715;51.988;6.020;2022-08-14T06:05:29;18.37;;;16.47;;
43098;SDS011;28715;51.988;6.020;2022-08-14T06:07:59;19.73;;;17.10;;
43098;SDS011;28715;51.988;6.020;2022-08-14T06:10:25;19.40;;;16.20;;
43098;SDS011;28715;51.988;6.020;2022-08-14T06:12:53;19.73;;;16.93;;
43098;SDS011;28715;51.988;6.020;2022-08-14T06:15:19;20.47;;;16.97;;
43098;SDS011;28715;51.988;6.020;2022-08-14T06:17:45;18.50;;;16.57;;
43098;SDS011;28715;51.988;6.020;2022-08-14T06:20:13;21.13;;;17.43;;
43098;SDS011;28715;51.988;6.020;2022-08-14T06:22:40;19.67;;;17.67;;
43098;SDS011;28715;51.988;6.020;2022-08-14T06:25:07;18.23;;;16.37;;
43098;SDS011;28715;51.988;6.020;2022-08-14T06:27:34;21.17;;;18.70;;
43098;SDS011;28715;51.988;6.020;2022-08-14T06:30:01;16.97;;;15.17;;
43098;SDS011;28715;51.988;6.020;2022-08-14T06:32:28;19.37;;;17.27;;
43098;SDS011;28715;51.988;6.020;2022-08-14T06:34:53;18.93;;;16.90;;
43098;SDS011;28715;51.988;6.020;2022-08-14T06:37:19;20.33;;;18.00;;
43098;SDS011;28715;51.988;6.020;2022-08-14T06:39:44;19.13;;;17.13;;
43098;SDS011;28715;51.988;6.020;2022-08-14T06:42:10;21.00;;;17.10;;
43098;SDS011;28715;51.988;6.020;2022-08-14T06:44:35;19.60;;;17.50;;
43098;SDS011;28715;51.988;6.020;2022-08-14T06:47:01;18.73;;;16.70;;
43098;SDS011;28715;51.988;6.020;2022-08-14T06:49:28;17.47;;;15.70;;
43098;SDS011;28715;51.988;6.020;2022-08-14T06:51:54;17.83;;;16.03;;
43098;SDS011;28715;51.988;6.020;2022-08-14T06:54:20;19.57;;;17.53;;
43098;SDS011;28715;51.988;6.020;2022-08-14T06:56:45;18.23;;;16.37;;
43098;SDS011;28715;51.988;6.020;2022-08-14T06:59:13;19.93;;;16.37;;
43098;SDS011;28715;51.988;6.020;2022-08-14T07:01:39;18.52;;;16.58;;
43098;SDS011;28715;51.988;6.020;2022-08-14T07:04:23;19.23;;;16.53;;
43098;SDS011;28715;51.988;6.020;2022-08-14T07:07:07;18.70;;;16.10;;
43098;SDS011;28715;51.988;6.020;2022-08-14T07:09:33;17.27;;;15.47;;
43098;SDS011;28715;51.988;6.020;2022-08-14T07:11:59;16.30;;;14.03;;
43098;SDS011;28715;51.988;6.020;2022-08-14T07:14:24;16.63;;;14.00;;
43098;SDS011;28715;51.988;6.020;2022-08-14T07:16:51;14.33;;;12.93;;
43098;SDS011;28715;51.988;6.020;2022-08-14T07:19:17;15.87;;;12.27;;
43098;SDS011;28715;51.988;6.020;2022-08-14T07:21:43;14.67;;;13.07;;
43098;SDS011;28715;51.988;6.020;2022-08-14T07:24:09;15.03;;;12.80;;
43098;SDS011;28715;51.988;6.020;2022-08-14T07:26:34;13.80;;;12.37;;
43098;SDS011;28715;51.988;6.020;2022-08-14T07:29:00;13.33;;;11.93;;
43098;SDS011;28715;51.988;6.020;2022-08-14T07:31:25;13.80;;;11.63;;
43098;SDS011;28715;51.988;6.020;2022-08-14T07:33:51;13.90;;;11.50;;
43098;SDS011;28715;51.988;6.020;2022-08-14T07:36:17;13.40;;;11.23;;
43098;SDS011;28715;51.988;6.020;2022-08-14T07:38:44;12.80;;;10.97;;
43098;SDS011;28715;51.988;6.020;2022-08-14T07:41:10;12.20;;;11.00;;
43098;SDS011;28715;51.988;6.020;2022-08-14T07:43:36;12.50;;;11.20;;
43098;SDS011;28715;51.988;6.020;2022-08-14T07:46:03;10.93;;;9.83;;
43098;SDS011;28715;51.988;6.020;2022-08-14T07:48:29;10.93;;;9.83;;
43098;SDS011;28715;51.988;6.020;2022-08-14T07:50:55;11.87;;;10.70;;
43098;SDS011;28715;51.988;6.020;2022-08-14T07:53:20;12.87;;;11.50;;
43098;SDS011;28715;51.988;6.020;2022-08-14T07:55:47;11.60;;;10.40;;
43098;SDS011;28715;51.988;6.020;2022-08-14T07:58:13;11.37;;;10.03;;
43098;SDS011;28715;51.988;6.020;2022-08-14T08:00:41;9.25;;;8.32;;
43098;SDS011;28715;51.988;6.020;2022-08-14T08:03:08;10.80;;;9.70;;
43098;SDS011;28715;51.988;6.020;2022-08-14T08:05:35;11.40;;;9.47;;
43098;SDS011;28715;51.988;6.020;2022-08-14T08:08:02;10.03;;;8.90;;
43098;SDS011;28715;51.988;6.020;2022-08-14T08:10:28;10.63;;;9.43;;
43098;SDS011;28715;51.988;6.020;2022-08-14T08:13:14;13.60;;;9.25;;
43098;SDS011;28715;51.988;6.020;2022-08-14T08:15:46;10.43;;;9.30;;
43098;SDS011;28715;51.988;6.020;2022-08-14T08:18:20;11.57;;;10.10;;
43098;SDS011;28715;51.988;6.020;2022-08-14T08:20:47;9.93;;;9.03;;
43098;SDS011;28715;51.988;6.020;2022-08-14T08:25:41;11.10;;;9.80;;
43098;SDS011;28715;51.988;6.020;2022-08-14T08:28:10;9.45;;;8.52;;
43098;SDS011;28715;51.988;6.020;2022-08-14T08:30:40;9.73;;;8.70;;
43098;SDS011;28715;51.988;6.020;2022-08-14T08:33:11;10.80;;;9.03;;
43098;SDS011;28715;51.988;6.020;2022-08-14T08:35:38;9.03;;;7.90;;
43098;SDS011;28715;51.988;6.020;2022-08-14T08:38:07;9.90;;;8.57;;
43098;SDS011;28715;51.988;6.020;2022-08-14T08:40:39;10.30;;;9.03;;
43098;SDS011;28715;51.988;6.020;2022-08-14T08:43:15;9.40;;;8.20;;
43098;SDS011;28715;51.988;6.020;2022-08-14T08:46:12;8.93;;;8.03;;
43098;SDS011;28715;51.988;6.020;2022-08-14T08:51:18;9.20;;;8.30;;
43098;SDS011;28715;51.988;6.020;2022-08-14T08:53:54;9.80;;;8.80;;
43098;SDS011;28715;51.988;6.020;2022-08-14T08:59:16;10.50;;;8.10;;
43098;SDS011;28715;51.988;6.020;2022-08-14T09:01:46;11.23;;;8.70;;
43098;SDS011;28715;51.988;6.020;2022-08-14T09:04:17;9.70;;;8.37;;
43098;SDS011;28715;51.988;6.020;2022-08-14T09:06:44;10.93;;;8.17;;
43098;SDS011;28715;51.988;6.020;2022-08-14T09:09:27;10.03;;;8.63;;
43098;SDS011;28715;51.988;6.020;2022-08-14T09:11:56;9.10;;;7.67;;
43098;SDS011;28715;51.988;6.020;2022-08-14T09:14:25;11.23;;;8.50;;
43098;SDS011;28715;51.988;6.020;2022-08-14T09:16:54;10.33;;;8.17;;
43098;SDS011;28715;51.988;6.020;2022-08-14T09:19:23;9.37;;;8.20;;
43098;SDS011;28715;51.988;6.020;2022-08-14T09:21:50;9.13;;;7.97;;
43098;SDS011;28715;51.988;6.020;2022-08-14T09:24:17;9.50;;;8.48;;
43098;SDS011;28715;51.988;6.020;2022-08-14T09:26:43;10.90;;;8.03;;
43098;SDS011;28715;51.988;6.020;2022-08-14T09:29:10;9.33;;;8.43;;
43098;SDS011;28715;51.988;6.020;2022-08-14T09:31:37;9.57;;;7.70;;
43098;SDS011;28715;51.988;6.020;2022-08-14T09:34:20;8.87;;;7.97;;
43098;SDS011;28715;51.988;6.020;2022-08-14T09:37:05;9.50;;;8.50;;
43098;SDS011;28715;51.988;6.020;2022-08-14T09:39:41;8.90;;;7.93;;
43098;SDS011;28715;51.988;6.020;2022-08-14T09:45:19;8.90;;;7.47;;
43098;SDS011;28715;51.988;6.020;2022-08-14T09:47:53;8.97;;;7.87;;
43098;SDS011;28715;51.988;6.020;2022-08-14T09:50:21;7.70;;;7.00;;
43098;SDS011;28715;51.988;6.020;2022-08-14T09:52:53;8.53;;;7.30;;
43098;SDS011;28715;51.988;6.020;2022-08-14T09:55:19;13.10;;;8.00;;
43098;SDS011;28715;51.988;6.020;2022-08-14T09:57:47;7.87;;;7.07;;
43098;SDS011;28715;51.988;6.020;2022-08-14T10:00:14;10.50;;;7.23;;
43098;SDS011;28715;51.988;6.020;2022-08-14T10:02:56;7.63;;;6.83;;
43098;SDS011;28715;51.988;6.020;2022-08-14T10:05:27;7.73;;;6.23;;
43098;SDS011;28715;51.988;6.020;2022-08-14T10:07:56;7.60;;;6.90;;
43098;SDS011;28715;51.988;6.020;2022-08-14T10:10:38;8.07;;;7.30;;
43098;SDS011;28715;51.988;6.020;2022-08-14T10:13:05;9.83;;;6.83;;
43098;SDS011;28715;51.988;6.020;2022-08-14T10:18:03;7.20;;;6.47;;
43098;SDS011;28715;51.988;6.020;2022-08-14T10:20:34;7.50;;;6.63;;
43098;SDS011;28715;51.988;6.020;2022-08-14T10:23:13;8.30;;;6.70;;
43098;SDS011;28715;51.988;6.020;2022-08-14T10:25:42;7.77;;;7.00;;
43098;SDS011;28715;51.988;6.020;2022-08-14T10:28:15;7.13;;;6.53;;
43098;SDS011;28715;51.988;6.020;2022-08-14T10:30:43;7.20;;;6.20;;
43098;SDS011;28715;51.988;6.020;2022-08-14T10:33:23;6.87;;;6.17;;
43098;SDS011;28715;51.988;6.020;2022-08-14T10:35:53;6.80;;;6.10;;
43098;SDS011;28715;51.988;6.020;2022-08-14T10:38:30;7.20;;;6.40;;
43098;SDS011;28715;51.988;6.020;2022-08-14T10:41:13;6.60;;;6.00;;
43098;SDS011;28715;51.988;6.020;2022-08-14T10:43:41;7.60;;;6.90;;
43098;SDS011;28715;51.988;6.020;2022-08-14T10:46:14;8.18;;;7.38;;
43098;SDS011;28715;51.988;6.020;2022-08-14T10:48:43;8.00;;;7.03;;
43098;SDS011;28715;51.988;6.020;2022-08-14T10:51:27;6.53;;;5.93;;
43098;SDS011;28715;51.988;6.020;2022-08-14T10:53:54;8.30;;;6.17;;
43098;SDS011;28715;51.988;6.020;2022-08-14T10:56:29;6.22;;;5.68;;
43098;SDS011;28715;51.988;6.020;2022-08-14T10:59:03;7.10;;;6.37;;
43098;SDS011;28715;51.988;6.020;2022-08-14T11:01:32;6.73;;;6.13;;
43098;SDS011;28715;51.988;6.020;2022-08-14T11:04:00;8.88;;;6.72;;
43098;SDS011;28715;51.988;6.020;2022-08-14T11:06:26;6.83;;;6.23;;
43098;SDS011;28715;51.988;6.020;2022-08-14T11:08:53;8.03;;;6.60;;
43098;SDS011;28715;51.988;6.020;2022-08-14T11:11:19;7.53;;;6.80;;
43098;SDS011;28715;51.988;6.020;2022-08-14T11:13:47;8.48;;;6.63;;
43098;SDS011;28715;51.988;6.020;2022-08-14T11:16:15;6.78;;;5.97;;
43098;SDS011;28715;51.988;6.020;2022-08-14T11:18:43;9.47;;;5.90;;
43098;SDS011;28715;51.988;6.020;2022-08-14T11:21:13;6.40;;;5.70;;
43098;SDS011;28715;51.988;6.020;2022-08-14T11:23:43;8.97;;;6.27;;
43098;SDS011;28715;51.988;6.020;2022-08-14T11:26:09;6.30;;;5.23;;
43098;SDS011;28715;51.988;6.020;2022-08-14T11:28:37;6.60;;;6.00;;
43098;SDS011;28715;51.988;6.020;2022-08-14T11:31:07;6.93;;;6.33;;
43098;SDS011;28715;51.988;6.020;2022-08-14T11:33:35;7.45;;;6.55;;
43098;SDS011;28715;51.988;6.020;2022-08-14T11:36:03;7.10;;;6.50;;
43098;SDS011;28715;51.988;6.020;2022-08-14T11:38:37;7.88;;;6.30;;
43098;SDS011;28715;51.988;6.020;2022-08-14T11:41:04;7.43;;;6.63;;
43098;SDS011;28715;51.988;6.020;2022-08-14T11:43:31;7.17;;;6.47;;
43098;SDS011;28715;51.988;6.020;2022-08-14T11:46:01;6.93;;;6.23;;
43098;SDS011;28715;51.988;6.020;2022-08-14T11:48:27;6.93;;;6.23;;
43098;SDS011;28715;51.988;6.020;2022-08-14T11:50:53;9.63;;;6.00;;
43098;SDS011;28715;51.988;6.020;2022-08-14T11:55:47;6.88;;;6.28;;
43098;SDS011;28715;51.988;6.020;2022-08-14T11:58:23;6.73;;;6.13;;
43098;SDS011;28715;51.988;6.020;2022-08-14T12:00:52;7.07;;;6.40;;
43098;SDS011;28715;51.988;6.020;2022-08-14T12:03:21;7.47;;;6.23;;
43098;SDS011;28715;51.988;6.020;2022-08-14T12:05:47;7.13;;;6.43;;
43098;SDS011;28715;51.988;6.020;2022-08-14T12:08:13;7.30;;;6.47;;
43098;SDS011;28715;51.988;6.020;2022-08-14T12:10:41;7.20;;;6.23;;
43098;SDS011;28715;51.988;6.020;2022-08-14T12:13:11;6.20;;;5.60;;
43098;SDS011;28715;51.988;6.020;2022-08-14T12:15:39;8.10;;;5.83;;
43098;SDS011;28715;51.988;6.020;2022-08-14T12:18:05;6.70;;;5.97;;
43098;SDS011;28715;51.988;6.020;2022-08-14T12:20:32;8.10;;;5.77;;
43098;SDS011;28715;51.988;6.020;2022-08-14T12:23:03;7.40;;;5.97;;
43098;SDS011;28715;51.988;6.020;2022-08-14T12:25:32;6.27;;;5.67;;
43098;SDS011;28715;51.988;6.020;2022-08-14T12:28:00;7.73;;;6.57;;
43098;SDS011;28715;51.988;6.020;2022-08-14T12:30:33;6.10;;;5.50;;
43098;SDS011;28715;51.988;6.020;2022-08-14T12:33:30;7.43;;;6.30;;
43098;SDS011;28715;51.988;6.020;2022-08-14T12:36:00;6.93;;;5.60;;
43098;SDS011;28715;51.988;6.020;2022-08-14T12:38:37;7.10;;;5.57;;
43098;SDS011;28715;51.988;6.020;2022-08-14T12:41:11;7.53;;;5.83;;
43098;SDS011;28715;51.988;6.020;2022-08-14T12:43:45;6.80;;;6.10;;
43098;SDS011;28715;51.988;6.020;2022-08-14T12:46:22;6.70;;;5.50;;
43098;SDS011;28715;51.988;6.020;2022-08-14T12:48:59;6.60;;;6.00;;
43098;SDS011;28715;51.988;6.020;2022-08-14T12:51:30;6.57;;;5.87;;
43098;SDS011;28715;51.988;6.020;2022-08-14T12:53:56;6.27;;;5.63;;
43098;SDS011;28715;51.988;6.020;2022-08-14T12:56:23;6.67;;;6.07;;
43098;SDS011;28715;51.988;6.020;2022-08-14T12:58:53;6.53;;;5.93;;
43098;SDS011;28715;51.988;6.020;2022-08-14T13:01:26;7.20;;;6.10;;
43098;SDS011;28715;51.988;6.020;2022-08-14T13:04:07;7.50;;;6.33;;
43098;SDS011;28715;51.988;6.020;2022-08-14T13:06:37;6.30;;;5.70;;
43098;SDS011;28715;51.988;6.020;2022-08-14T13:09:05;6.60;;;6.00;;
43098;SDS011;28715;51.988;6.020;2022-08-14T13:11:36;6.45;;;5.85;;
43098;SDS011;28715;51.988;6.020;2022-08-14T13:14:15;6.33;;;5.70;;
43098;SDS011;28715;51.988;6.020;2022-08-14T13:16:42;5.90;;;5.17;;
43098;SDS011;28715;51.988;6.020;2022-08-14T13:19:10;6.00;;;5.50;;
43098;SDS011;28715;51.988;6.020;2022-08-14T13:21:39;6.30;;;5.27;;
43098;SDS011;28715;51.988;6.020;2022-08-14T13:24:06;5.93;;;5.20;;
43098;SDS011;28715;51.988;6.020;2022-08-14T13:26:37;7.33;;;5.60;;
43098;SDS011;28715;51.988;6.020;2022-08-14T13:29:09;7.70;;;5.60;;
43098;SDS011;28715;51.988;6.020;2022-08-14T13:31:36;7.10;;;5.43;;
43098;SDS011;28715;51.988;6.020;2022-08-14T13:34:03;5.67;;;5.07;;
43098;SDS011;28715;51.988;6.020;2022-08-14T13:36:30;5.87;;;5.27;;
43098;SDS011;28715;51.988;6.020;2022-08-14T13:38:56;6.40;;;5.70;;
43098;SDS011;28715;51.988;6.020;2022-08-14T13:41:24;6.88;;;5.55;;
43098;SDS011;28715;51.988;6.020;2022-08-14T13:43:51;6.68;;;4.95;;
43098;SDS011;28715;51.988;6.020;2022-08-14T13:48:46;5.63;;;5.13;;
43098;SDS011;28715;51.988;6.020;2022-08-14T13:51:11;6.07;;;5.47;;
43098;SDS011;28715;51.988;6.020;2022-08-14T13:53:43;6.20;;;5.30;;
43098;SDS011;28715;51.988;6.020;2022-08-14T13:56:10;5.60;;;5.10;;
43098;SDS011;28715;51.988;6.020;2022-08-14T13:58:37;6.30;;;5.30;;
43098;SDS011;28715;51.988;6.020;2022-08-14T14:01:05;5.93;;;5.30;;
43098;SDS011;28715;51.988;6.020;2022-08-14T14:03:33;7.77;;;5.30;;
43098;SDS011;28715;51.988;6.020;2022-08-14T14:05:59;8.77;;;5.57;;
43098;SDS011;28715;51.988;6.020;2022-08-14T14:08:27;5.57;;;5.00;;
43098;SDS011;28715;51.988;6.020;2022-08-14T14:10:54;5.78;;;4.70;;
43098;SDS011;28715;51.988;6.020;2022-08-14T14:13:20;6.87;;;5.03;;
43098;SDS011;28715;51.988;6.020;2022-08-14T14:15:47;5.97;;;5.07;;
43098;SDS011;28715;51.988;6.020;2022-08-14T14:18:13;5.60;;;4.90;;
43098;SDS011;28715;51.988;6.020;2022-08-14T14:20:42;5.50;;;4.90;;
43098;SDS011;28715;51.988;6.020;2022-08-14T14:23:08;6.43;;;5.27;;
43098;SDS011;28715;51.988;6.020;2022-08-14T14:25:41;5.60;;;4.87;;
43098;SDS011;28715;51.988;6.020;2022-08-14T14:28:10;5.43;;;4.93;;
43098;SDS011;28715;51.988;6.020;2022-08-14T14:30:37;5.45;;;4.80;;
43098;SDS011;28715;51.988;6.020;2022-08-14T14:35:33;6.03;;;4.90;;
43098;SDS011;28715;51.988;6.020;2022-08-14T14:37:59;6.70;;;5.30;;
43098;SDS011;28715;51.988;6.020;2022-08-14T14:40:25;6.30;;;5.67;;
43098;SDS011;28715;51.988;6.020;2022-08-14T14:42:53;8.13;;;5.57;;
43098;SDS011;28715;51.988;6.020;2022-08-14T14:45:21;7.87;;;5.43;;
43098;SDS011;28715;51.988;6.020;2022-08-14T14:47:50;7.20;;;5.30;;
43098;SDS011;28715;51.988;6.020;2022-08-14T14:50:17;7.50;;;5.60;;
43098;SDS011;28715;51.988;6.020;2022-08-14T14:52:44;6.03;;;5.43;;
43098;SDS011;28715;51.988;6.020;2022-08-14T14:55:11;6.33;;;5.73;;
43098;SDS011;28715;51.988;6.020;2022-08-14T14:57:37;6.30;;;5.70;;
43098;SDS011;28715;51.988;6.020;2022-08-14T15:00:15;6.37;;;5.77;;
43098;SDS011;28715;51.988;6.020;2022-08-14T15:02:43;6.87;;;5.73;;
43098;SDS011;28715;51.988;6.020;2022-08-14T15:05:14;6.20;;;5.40;;
43098;SDS011;28715;51.988;6.020;2022-08-14T15:07:41;5.63;;;5.13;;